createdAt,value
2022-09-30T00:01:47.034Z,72.00
2022-09-30T00:04:17.981Z,62.03
2022-09-30T00:06:47.174Z,63.43
2022-09-30T00:09:16.376Z,61.77
2022-09-30T00:11:47.937Z,61.60
2022-09-30T00:14:18.923Z,63.60
2022-09-30T00:16:48.194Z,60.30
2022-09-30T00:19:17.346Z,64.87
2022-09-30T00:21:46.051Z,57.80
2022-09-30T00:24:14.924Z,58.23
2022-09-30T00:26:43.596Z,63.57
2022-09-30T00:29:13.745Z,62.57
2022-09-30T00:31:42.363Z,61.67
2022-09-30T00:34:12.302Z,68.77
2022-09-30T00:36:44.993Z,63.50
2022-09-30T00:43:02.199Z,69.93
2022-09-30T00:45:34.499Z,60.73
2022-09-30T00:48:08.405Z,60.13
2022-09-30T00:50:42.585Z,61.40
2022-09-30T00:53:15.703Z,59.47
2022-09-30T00:55:53.291Z,58.20
2022-09-30T00:58:26.962Z,55.10
2022-09-30T01:00:58.721Z,55.37
2022-09-30T01:03:27.686Z,53.90
2022-09-30T01:05:57.064Z,57.63
2022-09-30T01:08:27.377Z,59.70
2022-09-30T01:10:56.078Z,55.63
2022-09-30T01:13:27.855Z,59.70
2022-09-30T01:16:10.277Z,59.97
2022-09-30T01:18:49.835Z,57.83
2022-09-30T01:21:48.098Z,66.97
2022-09-30T01:24:32.569Z,61.20
2022-09-30T01:27:24.604Z,59.13
2022-09-30T01:30:14.692Z,63.97
2022-09-30T01:33:12.962Z,57.17
2022-09-30T01:36:02.686Z,54.73
2022-09-30T01:38:37.282Z,59.17
2022-09-30T01:41:10.544Z,48.23
2022-09-30T01:43:45.672Z,50.87
2022-09-30T01:46:30.251Z,55.27
2022-09-30T01:49:10.312Z,50.47
2022-09-30T01:51:44.809Z,51.00
2022-09-30T01:54:19.230Z,49.60
2022-09-30T01:56:51.041Z,52.27
2022-09-30T01:59:23.733Z,55.93
2022-09-30T02:01:57.606Z,54.90
2022-09-30T02:04:42.335Z,54.90
2022-09-30T02:07:19.755Z,62.30
2022-09-30T02:09:53.930Z,58.87
2022-09-30T02:12:26.054Z,62.33
2022-09-30T02:15:00.571Z,60.33
2022-09-30T02:17:32.210Z,62.97
2022-09-30T02:20:07.350Z,62.67
2022-09-30T02:22:42.671Z,55.57
2022-09-30T02:25:15.339Z,55.47
2022-09-30T02:27:48.439Z,60.87
2022-09-30T02:30:17.843Z,58.43
2022-09-30T02:32:50.761Z,60.20
2022-09-30T02:35:25.672Z,61.30
2022-09-30T02:37:57.653Z,58.63
2022-09-30T02:40:32.946Z,55.53
2022-09-30T02:43:03.485Z,67.97
2022-09-30T02:45:40.077Z,66.93
2022-09-30T02:48:19.302Z,60.57
2022-09-30T02:50:54.631Z,53.27
2022-09-30T02:53:29.269Z,62.47
2022-09-30T02:56:16.089Z,61.17
2022-09-30T02:58:46.964Z,63.63
2022-09-30T03:01:17.082Z,60.87
2022-09-30T03:03:49.712Z,56.60
2022-09-30T03:06:20.339Z,62.47
2022-09-30T03:08:49.166Z,55.70
2022-09-30T03:11:20.706Z,63.57
2022-09-30T03:14:19.282Z,58.70
2022-09-30T03:17:20.271Z,46.28
2022-09-30T03:20:01.860Z,61.50
2022-09-30T03:22:56.967Z,64.40
2022-09-30T03:25:34.044Z,61.30
2022-09-30T03:28:12.280Z,55.57
2022-09-30T03:30:51.161Z,58.00
2022-09-30T03:33:24.610Z,84.77
2022-09-30T03:36:00.966Z,68.67
2022-09-30T03:38:41.566Z,62.03
2022-09-30T03:41:18.514Z,55.47
2022-09-30T03:43:52.125Z,57.70
2022-09-30T03:46:26.293Z,56.03
2022-09-30T03:48:57.632Z,65.23
2022-09-30T03:51:27.198Z,44.92
2022-09-30T03:53:57.701Z,39.87
2022-09-30T03:56:27.619Z,51.87
2022-09-30T03:58:58.168Z,58.80
2022-09-30T04:01:26.911Z,56.37
2022-09-30T04:03:55.954Z,54.23
2022-09-30T04:06:25.982Z,59.57
2022-09-30T04:08:55.250Z,56.40
2022-09-30T04:11:25.424Z,57.27
2022-09-30T04:13:54.081Z,56.00
2022-09-30T04:16:22.808Z,55.60
2022-09-30T04:18:52.125Z,58.63
2022-09-30T04:21:20.729Z,59.33
2022-09-30T04:23:49.392Z,55.13
2022-09-30T04:26:20.364Z,54.60
2022-09-30T04:28:50.788Z,55.17
2022-09-30T04:31:21.987Z,54.33
2022-09-30T04:33:50.907Z,57.30
2022-09-30T04:36:20.006Z,59.70
2022-09-30T04:38:49.248Z,60.13
2022-09-30T04:41:19.113Z,55.37
2022-09-30T04:43:50.126Z,55.57
2022-09-30T04:46:20.713Z,52.07
2022-09-30T04:48:51.393Z,55.47
2022-09-30T04:51:21.962Z,58.53
2022-09-30T04:53:51.429Z,36.72
2022-09-30T04:56:20.087Z,36.80
2022-09-30T04:58:50.194Z,43.77
2022-09-30T05:01:20.079Z,40.28
2022-09-30T05:03:49.096Z,36.67
2022-09-30T05:06:18.327Z,37.97
2022-09-30T05:08:47.173Z,50.93
2022-09-30T05:11:18.858Z,53.93
2022-09-30T05:13:49.841Z,58.77
2022-09-30T05:16:22.349Z,64.93
2022-09-30T05:18:52.615Z,66.57
2022-09-30T05:21:21.493Z,70.43
2022-09-30T05:23:50.361Z,65.07
2022-09-30T05:26:18.988Z,68.57
2022-09-30T05:28:48.114Z,80.20
2022-09-30T05:31:18.359Z,66.93
2022-09-30T05:33:48.107Z,64.37
2022-09-30T05:36:17.962Z,58.63
2022-09-30T05:38:46.624Z,69.70
2022-09-30T05:41:15.854Z,62.90
2022-09-30T05:43:48.069Z,67.73
2022-09-30T05:46:18.934Z,69.93
2022-09-30T05:48:48.476Z,67.60
2022-09-30T05:51:17.100Z,61.00
2022-09-30T05:53:46.172Z,65.30
2022-09-30T05:56:15.749Z,62.57
2022-09-30T05:58:44.469Z,64.30
2022-09-30T06:01:14.664Z,60.37
2022-09-30T06:03:45.378Z,51.80
2022-09-30T06:06:14.484Z,60.23
2022-09-30T06:08:44.698Z,63.97
2022-09-30T06:11:15.133Z,62.70
2022-09-30T06:13:45.105Z,54.40
2022-09-30T06:16:14.110Z,55.77
2022-09-30T06:18:44.186Z,50.63
2022-09-30T06:21:15.586Z,48.93
2022-09-30T06:23:44.501Z,51.43
2022-09-30T06:26:14.660Z,45.30
2022-09-30T06:28:44.360Z,43.47
2022-09-30T06:31:13.195Z,41.00
2022-09-30T06:33:43.855Z,46.57
2022-09-30T06:36:12.534Z,40.00
2022-09-30T06:38:41.183Z,40.63
2022-09-30T06:41:10.604Z,41.30
2022-09-30T06:43:45.246Z,47.93
2022-09-30T06:46:23.881Z,48.97
2022-09-30T06:49:22.672Z,50.43
2022-09-30T06:51:51.608Z,53.50
2022-09-30T06:54:20.878Z,55.37
2022-09-30T06:56:49.597Z,55.83
2022-09-30T06:59:18.647Z,49.10
2022-09-30T07:01:47.364Z,52.43
2022-09-30T07:04:17.695Z,54.23
2022-09-30T07:06:46.643Z,55.67
2022-09-30T07:09:15.910Z,55.17
2022-09-30T07:11:45.084Z,49.93
2022-09-30T07:14:14.430Z,50.87
2022-09-30T07:16:44.904Z,48.80
2022-09-30T07:19:14.830Z,52.57
2022-09-30T07:21:45.004Z,51.13
2022-09-30T07:24:13.661Z,47.77
2022-09-30T07:26:42.523Z,48.87
2022-09-30T07:29:11.212Z,48.93
2022-09-30T07:31:40.071Z,47.23
2022-09-30T07:34:10.738Z,60.67
2022-09-30T07:36:41.964Z,43.83
2022-09-30T07:39:12.820Z,36.13
2022-09-30T07:41:43.987Z,38.30
2022-09-30T07:44:15.259Z,40.57
2022-09-30T07:46:45.517Z,49.83
2022-09-30T07:49:16.319Z,55.70
2022-09-30T07:51:45.787Z,60.97
2022-09-30T07:54:18.053Z,68.53
2022-09-30T07:59:38.974Z,56.10
2022-09-30T08:02:15.410Z,55.33
2022-09-30T08:04:44.813Z,53.67
2022-09-30T08:07:14.936Z,56.13
2022-09-30T08:09:45.332Z,57.97
2022-09-30T08:12:13.953Z,44.53
2022-09-30T08:14:42.723Z,40.87
2022-09-30T08:17:11.411Z,34.17
2022-09-30T08:19:44.217Z,29.00
2022-09-30T08:22:14.241Z,27.63
2022-09-30T08:24:44.742Z,29.50
2022-09-30T08:27:13.417Z,30.63
2022-09-30T08:29:54.315Z,30.30
2022-09-30T08:32:23.587Z,28.20
2022-09-30T08:34:52.269Z,27.97
2022-09-30T08:37:20.892Z,28.37
2022-09-30T08:39:50.997Z,27.03
2022-09-30T08:42:50.576Z,27.47
2022-09-30T08:45:32.930Z,27.33
2022-09-30T08:48:18.631Z,29.70
2022-09-30T08:50:58.744Z,29.83
2022-09-30T08:53:30.782Z,27.93
2022-09-30T08:56:02.945Z,30.30
2022-09-30T08:58:34.242Z,31.20
2022-09-30T09:01:15.011Z,29.90
2022-09-30T09:03:45.538Z,30.43
2022-09-30T09:06:24.694Z,31.40
2022-09-30T09:09:18.558Z,33.50
2022-09-30T09:12:03.260Z,29.33
2022-09-30T09:14:41.256Z,21.80
2022-09-30T09:17:25.159Z,19.77
2022-09-30T09:20:01.799Z,21.17
2022-09-30T09:22:31.796Z,21.43
2022-09-30T09:25:01.613Z,20.27
2022-09-30T09:27:44.783Z,20.17
2022-09-30T09:30:16.186Z,20.90
2022-09-30T09:32:47.396Z,18.50
2022-09-30T09:35:19.013Z,19.47
2022-09-30T09:38:17.361Z,18.30
2022-09-30T09:40:58.546Z,18.77
2022-09-30T09:43:46.590Z,19.43
2022-09-30T09:46:21.410Z,18.07
2022-09-30T09:48:51.542Z,28.00
2022-09-30T09:51:28.094Z,32.83
2022-09-30T09:53:59.645Z,17.37
2022-09-30T09:56:32.422Z,170.83
2022-09-30T09:59:24.268Z,140.77
2022-09-30T10:01:55.029Z,84.00
2022-09-30T10:04:26.751Z,106.90
2022-09-30T10:06:58.211Z,91.00
2022-09-30T10:09:32.792Z,78.10
2022-09-30T10:12:30.801Z,76.90
2022-09-30T10:15:14.233Z,87.67
2022-09-30T10:17:43.448Z,127.90
2022-09-30T10:20:30.857Z,106.23
2022-09-30T10:23:06.111Z,68.97
2022-09-30T10:25:38.579Z,118.13
2022-09-30T10:28:24.224Z,104.80
2022-09-30T10:30:58.746Z,89.23
2022-09-30T10:33:31.173Z,71.57
2022-09-30T10:36:10.499Z,90.47
2022-09-30T10:38:47.173Z,150.40
2022-09-30T10:41:22.703Z,168.53
2022-09-30T10:43:54.708Z,198.93
2022-09-30T10:46:28.186Z,15.07
2022-09-30T10:48:59.210Z,18.33
2022-09-30T10:51:36.480Z,15.73
2022-09-30T10:54:06.567Z,14.47
2022-09-30T10:56:41.810Z,16.63
2022-09-30T10:59:33.422Z,17.17
2022-09-30T11:02:15.278Z,13.47
2022-09-30T11:04:51.258Z,15.23
2022-09-30T11:07:27.479Z,15.60
2022-09-30T11:10:02.320Z,16.10
2022-09-30T11:12:40.752Z,13.37
2022-09-30T11:15:18.231Z,15.77
2022-09-30T11:17:56.857Z,15.20
2022-09-30T11:20:29.945Z,14.80
2022-09-30T11:23:08.104Z,15.57
2022-09-30T11:25:44.643Z,14.57
2022-09-30T11:28:36.840Z,16.10
2022-09-30T11:31:17.003Z,13.47
2022-09-30T11:33:57.432Z,15.07
2022-09-30T11:36:33.727Z,16.43
2022-09-30T11:39:28.679Z,16.60
2022-09-30T11:42:06.752Z,14.60
2022-09-30T11:44:38.199Z,15.57
2022-09-30T11:47:46.660Z,15.80
2022-09-30T11:50:34.096Z,14.60
2022-09-30T11:53:14.867Z,15.57
2022-09-30T11:55:57.750Z,14.95
2022-09-30T11:58:46.830Z,16.00
2022-09-30T12:01:23.771Z,15.20
2022-09-30T12:04:00.971Z,17.10
2022-09-30T12:06:36.597Z,19.27
2022-09-30T12:09:21.222Z,18.20
2022-09-30T12:11:55.193Z,16.50
2022-09-30T12:14:30.972Z,26.83
2022-09-30T12:17:04.424Z,35.90
2022-09-30T12:19:38.150Z,33.80
2022-09-30T12:22:14.492Z,22.67
2022-09-30T12:24:45.932Z,24.33
2022-09-30T12:27:25.388Z,22.47
2022-09-30T12:30:17.959Z,38.63
2022-09-30T12:33:18.139Z,42.83
2022-09-30T12:36:22.300Z,48.90
2022-09-30T12:39:22.012Z,58.97
2022-09-30T12:42:03.651Z,41.53
2022-09-30T12:44:55.468Z,43.90
2022-09-30T12:47:35.018Z,47.00
2022-09-30T12:50:08.728Z,33.87
2022-09-30T12:52:38.637Z,25.20
2022-09-30T12:55:20.139Z,32.97
2022-09-30T12:57:51.489Z,29.38
2022-09-30T13:00:22.695Z,19.90
2022-09-30T13:02:57.606Z,37.83
2022-09-30T13:06:06.678Z,63.13
2022-09-30T13:09:04.239Z,22.27
2022-09-30T13:11:42.772Z,17.60
2022-09-30T13:14:26.091Z,41.50
2022-09-30T13:17:03.384Z,89.70
2022-09-30T13:19:37.925Z,195.27
2022-09-30T13:22:51.974Z,241.13
2022-09-30T13:25:20.619Z,388.70
2022-09-30T13:27:54.145Z,167.17
2022-09-30T13:30:42.272Z,80.17
2022-09-30T13:33:48.400Z,100.13
2022-09-30T13:36:32.582Z,44.50
2022-09-30T13:39:18.337Z,82.00
2022-09-30T13:41:55.066Z,93.90
2022-09-30T13:44:33.574Z,27.10
2022-09-30T13:47:09.987Z,23.20
2022-09-30T13:49:44.952Z,41.53
2022-09-30T13:52:22.823Z,46.80
2022-09-30T13:54:55.045Z,65.67
2022-09-30T13:57:29.219Z,28.00
2022-09-30T14:00:07.751Z,56.57
2022-09-30T14:03:05.313Z,53.73
2022-09-30T14:05:51.368Z,34.93
2022-09-30T14:08:54.887Z,34.73
2022-09-30T14:12:07.722Z,73.20
2022-09-30T14:15:06.785Z,46.60
2022-09-30T14:17:50.862Z,22.13
2022-09-30T14:20:48.433Z,21.23
2022-09-30T14:23:18.452Z,59.20
2022-09-30T14:26:01.150Z,52.80
2022-09-30T14:28:37.685Z,54.70
2022-09-30T14:31:13.708Z,56.27
2022-09-30T14:33:45.865Z,22.37
2022-09-30T14:36:32.913Z,17.13
2022-09-30T14:39:04.221Z,15.70
2022-09-30T14:41:34.917Z,19.70
2022-09-30T14:44:06.235Z,21.80
2022-09-30T14:46:36.951Z,18.67
2022-09-30T14:49:09.902Z,22.50
2022-09-30T14:51:43.684Z,31.97
2022-09-30T14:54:20.025Z,31.03
2022-09-30T14:56:49.834Z,24.87
2022-09-30T14:59:20.509Z,27.03
2022-09-30T15:01:52.562Z,23.57
2022-09-30T15:04:26.712Z,22.10
2022-09-30T15:06:56.932Z,43.10
2022-09-30T15:09:29.622Z,22.13
2022-09-30T15:11:59.760Z,24.43
2022-09-30T15:14:28.862Z,19.57
2022-09-30T15:17:01.424Z,18.10
2022-09-30T15:19:43.876Z,20.17
2022-09-30T15:22:15.869Z,24.97
2022-09-30T15:24:45.474Z,31.33
2022-09-30T15:27:19.885Z,29.97
2022-09-30T15:29:59.132Z,32.10
2022-09-30T15:32:30.092Z,21.33
2022-09-30T15:35:05.721Z,70.63
2022-09-30T15:37:35.530Z,40.30
2022-09-30T15:40:22.269Z,73.33
2022-09-30T15:42:59.802Z,56.27
2022-09-30T15:45:35.754Z,134.03
2022-09-30T15:48:07.499Z,77.90
2022-09-30T15:50:45.675Z,159.63
2022-09-30T15:53:24.145Z,43.07
2022-09-30T15:55:55.861Z,20.07
2022-09-30T15:58:39.232Z,56.57
2022-09-30T16:01:15.557Z,34.80
2022-09-30T16:03:50.922Z,28.93
2022-09-30T16:06:26.373Z,33.43
2022-09-30T16:09:01.746Z,28.03
2022-09-30T16:11:35.071Z,26.40
2022-09-30T16:14:06.344Z,16.43
2022-09-30T16:16:37.109Z,35.72
2022-09-30T16:19:06.586Z,20.07
2022-09-30T16:21:50.791Z,18.77
2022-09-30T16:24:50.635Z,18.20
2022-09-30T16:27:30.244Z,19.53
2022-09-30T16:30:00.311Z,22.20
2022-09-30T16:32:33.129Z,21.30
2022-09-30T16:35:05.353Z,26.10
2022-09-30T16:37:36.413Z,36.40
2022-09-30T16:40:17.987Z,34.23
2022-09-30T16:42:47.564Z,28.23
2022-09-30T16:45:17.135Z,70.17
2022-09-30T16:47:46.449Z,48.92
2022-09-30T16:50:23.952Z,84.67
2022-09-30T16:52:54.096Z,113.60
2022-09-30T16:55:22.978Z,145.37
2022-09-30T16:57:51.676Z,133.47
2022-09-30T17:00:20.576Z,142.50
2022-09-30T17:02:51.406Z,284.10
2022-09-30T17:05:22.475Z,177.53
2022-09-30T17:07:55.707Z,126.10
2022-09-30T17:10:29.082Z,229.10
2022-09-30T17:13:00.705Z,220.63
2022-09-30T17:15:31.620Z,238.77
2022-09-30T17:18:00.805Z,217.30
2022-09-30T17:20:30.019Z,41.93
2022-09-30T17:23:03.644Z,52.23
2022-09-30T17:25:35.194Z,43.40
2022-09-30T17:28:03.928Z,57.50
2022-09-30T17:30:34.328Z,64.00
2022-09-30T17:33:03.565Z,58.83
2022-09-30T17:35:33.949Z,70.17
2022-09-30T17:38:07.512Z,55.43
2022-09-30T17:41:02.639Z,68.77
2022-09-30T17:43:33.615Z,69.30
2022-09-30T17:46:02.674Z,71.73
2022-09-30T17:48:31.444Z,76.23
2022-09-30T17:51:00.627Z,85.17
2022-09-30T17:53:31.123Z,72.47
2022-09-30T17:56:04.231Z,49.57
2022-09-30T17:58:35.133Z,29.20
2022-09-30T18:01:08.239Z,43.40
2022-09-30T18:03:37.811Z,31.43
2022-09-30T18:06:07.657Z,32.97
2022-09-30T18:08:38.565Z,32.77
2022-09-30T18:11:10.969Z,28.97
2022-09-30T18:13:40.160Z,28.60
2022-09-30T18:16:09.495Z,28.97
2022-09-30T18:18:39.131Z,27.90
2022-09-30T18:21:08.542Z,27.43
2022-09-30T18:23:39.516Z,27.43
2022-09-30T18:26:10.045Z,23.37
2022-09-30T18:28:39.824Z,21.43
2022-09-30T18:31:10.103Z,23.87
2022-09-30T18:33:39.710Z,20.77
2022-09-30T18:36:10.208Z,26.13
2022-09-30T18:38:41.115Z,25.23
2022-09-30T18:41:11.763Z,30.10
2022-09-30T18:43:41.797Z,49.83
2022-09-30T18:46:14.533Z,47.97
2022-09-30T18:48:49.909Z,45.97
2022-09-30T18:51:20.430Z,69.93
2022-09-30T18:54:01.855Z,89.43
2022-09-30T18:56:33.525Z,85.67
2022-09-30T19:01:39.651Z,107.37
2022-09-30T19:04:09.328Z,99.00
2022-09-30T19:06:41.233Z,81.03
2022-09-30T19:09:12.457Z,91.93
2022-09-30T19:11:43.582Z,69.40
2022-09-30T19:14:15.237Z,57.23
2022-09-30T19:16:46.715Z,51.13
2022-09-30T19:19:18.028Z,45.93
2022-09-30T19:21:47.631Z,37.60
2022-09-30T19:24:25.310Z,38.27
2022-09-30T19:26:57.577Z,32.93
2022-09-30T19:29:26.603Z,28.67
2022-09-30T19:31:57.652Z,34.00
2022-09-30T19:34:32.025Z,39.67
2022-09-30T19:37:01.805Z,42.17
2022-09-30T19:39:42.532Z,33.77
2022-09-30T19:42:18.501Z,34.17
2022-09-30T19:44:49.599Z,36.53
2022-09-30T19:47:19.170Z,33.70
2022-09-30T19:49:47.962Z,52.13
2022-09-30T19:52:21.892Z,55.53
2022-09-30T19:54:56.465Z,51.93
2022-09-30T19:57:35.250Z,44.23
2022-09-30T20:00:05.551Z,49.63
2022-09-30T20:02:35.509Z,53.23
2022-09-30T20:05:05.553Z,50.57
2022-09-30T20:07:35.519Z,40.10
2022-09-30T20:10:08.015Z,36.30
2022-09-30T20:12:36.916Z,33.50
2022-09-30T20:15:23.520Z,35.70
2022-09-30T20:17:52.714Z,37.17
2022-09-30T20:20:37.552Z,38.53
2022-09-30T20:23:07.066Z,39.57
2022-09-30T20:25:38.703Z,39.93
2022-09-30T20:28:08.327Z,38.50
2022-09-30T20:30:43.418Z,39.63
2022-09-30T20:33:17.334Z,42.00
2022-09-30T20:35:48.367Z,45.80
2022-09-30T20:38:21.577Z,59.73
2022-09-30T20:40:55.770Z,60.83
2022-09-30T20:43:26.995Z,63.97
2022-09-30T20:45:56.814Z,61.00
2022-09-30T20:48:28.811Z,56.60
2022-09-30T20:51:00.191Z,57.60
2022-09-30T20:53:28.995Z,58.40
2022-09-30T20:56:02.610Z,57.23
2022-09-30T20:58:31.361Z,60.03
2022-09-30T21:01:03.769Z,59.17
2022-09-30T21:03:36.201Z,61.67
2022-09-30T21:06:05.403Z,67.13
2022-09-30T21:08:39.019Z,69.43
2022-09-30T21:11:09.465Z,69.67
2022-09-30T21:13:44.157Z,68.10
2022-09-30T21:16:15.159Z,66.83
2022-09-30T21:18:44.285Z,65.27
2022-09-30T21:21:14.635Z,64.37
2022-09-30T21:23:43.873Z,60.47
2022-09-30T21:26:15.332Z,61.30
2022-09-30T21:28:48.776Z,60.63
2022-09-30T21:31:20.676Z,61.80
2022-09-30T21:33:52.189Z,64.97
2022-09-30T21:36:22.286Z,66.37
2022-09-30T21:38:52.225Z,65.17
2022-09-30T21:41:23.138Z,56.97
2022-09-30T21:43:51.803Z,54.27
2022-09-30T21:46:20.730Z,54.70
2022-09-30T21:48:49.740Z,51.13
2022-09-30T21:51:18.451Z,53.33
2022-09-30T21:53:48.988Z,52.10
2022-09-30T21:56:21.391Z,49.23
2022-09-30T21:58:50.120Z,47.10
2022-09-30T22:01:18.784Z,45.47
2022-09-30T22:03:47.660Z,49.40
2022-09-30T22:06:19.003Z,43.40
2022-09-30T22:08:47.674Z,41.33
2022-09-30T22:11:17.949Z,44.20
2022-09-30T22:13:48.491Z,41.20
2022-09-30T22:16:20.008Z,42.97
2022-09-30T22:18:48.770Z,42.20
2022-09-30T22:21:17.977Z,42.87
2022-09-30T22:23:49.301Z,49.60
2022-09-30T22:26:19.513Z,43.20
2022-09-30T22:28:50.528Z,37.40
2022-09-30T22:31:20.773Z,34.07
2022-09-30T22:34:07.664Z,43.33
2022-09-30T22:36:53.918Z,41.17
2022-09-30T22:39:23.892Z,41.20
2022-09-30T22:41:54.401Z,45.40
2022-09-30T22:44:25.925Z,43.63
2022-09-30T22:46:55.506Z,45.13
2022-09-30T22:49:25.528Z,45.57
2022-09-30T22:51:54.653Z,46.87
2022-09-30T22:54:24.458Z,42.07
2022-09-30T22:56:54.982Z,47.17
2022-09-30T22:59:26.078Z,109.27
2022-09-30T23:01:55.607Z,113.27
2022-09-30T23:04:26.440Z,114.27
2022-09-30T23:06:56.686Z,118.50
2022-09-30T23:09:25.680Z,118.30
2022-09-30T23:11:57.239Z,112.50
2022-09-30T23:14:27.435Z,113.93
2022-09-30T23:16:56.162Z,119.13
2022-09-30T23:19:25.038Z,113.67
2022-09-30T23:21:53.904Z,119.33
2022-09-30T23:24:22.626Z,110.83
2022-09-30T23:26:51.314Z,113.60
2022-09-30T23:29:20.327Z,101.20
2022-09-30T23:31:50.641Z,105.13
2022-09-30T23:34:19.536Z,100.47
2022-09-30T23:36:48.397Z,100.90
2022-09-30T23:39:20.391Z,107.93
2022-09-30T23:41:50.005Z,102.03
2022-09-30T23:44:19.605Z,99.83
2022-09-30T23:47:07.686Z,93.33
2022-09-30T23:49:36.544Z,92.17
2022-09-30T23:52:09.190Z,96.93
2022-09-30T23:54:40.610Z,94.20
2022-09-30T23:57:10.102Z,83.67
2022-09-30T23:59:39.154Z,96.43
